Time;durP1;ratioP1;P1;durP2;ratioP2;P2;SDS_P1;SDS_P2;PMS_P1;PMS_P2;Temp;Humidity;BMP_temperature;BMP_pressure;BME280_temperature;BME280_humidity;BME280_pressure;Samples;Min_cycle;Max_cycle;Signal;HPM_P1;HPM_P2
2021/11/11 00:01:42;;;;;;;1.45;1.35;;;;;;;-0.44;88.21;100829.16;6333036;22;20027;-71
2021/11/11 00:04:11;;;;;;;1.48;1.33;;;;;;;-0.37;87.75;100836.03;6332793;22;20037;-71
2021/11/11 00:06:39;;;;;;;2.13;2.00;;;;;;;-0.31;87.67;100820.66;6332778;22;20624;-72
2021/11/11 00:09:05;;;;;;;5.72;2.22;;;;;;;-0.32;87.17;100806.13;6329792;22;20034;-71
2021/11/11 00:11:31;;;;;;;2.28;2.17;;;;;;;-0.25;87.18;100810.44;6331075;22;20022;-70
2021/11/11 00:13:57;;;;;;;2.38;1.95;;;;;;;-0.26;87.67;100806.13;6331075;22;20030;-70
2021/11/11 00:16:23;;;;;;;0.70;0.70;;;;;;;-0.25;87.30;100795.03;6331084;22;20038;-70
2021/11/11 00:18:52;;;;;;;1.83;1.73;;;;;;;-0.16;85.93;100791.63;6330682;22;20072;-71
2021/11/11 00:21:18;;;;;;;1.55;1.55;;;;;;;-0.15;86.70;100798.50;6329757;22;20015;-71
2021/11/11 00:23:44;;;;;;;1.00;1.00;;;;;;;-0.12;86.27;100794.22;6329069;22;20102;-70
2021/11/11 00:26:12;;;;;;;0.70;0.70;;;;;;;-0.07;85.55;100789.97;6330519;22;20019;-71
2021/11/11 00:28:42;;;;;;;1.00;1.00;;;;;;;-0.08;85.60;100788.25;6302901;22;20046;-72
2021/11/11 00:31:10;;;;;;;0.53;0.53;;;;;;;-0.13;85.26;100771.16;6329189;22;20022;-72
2021/11/11 00:33:36;;;;;;;2.40;2.30;;;;;;;0.00;84.49;100781.41;6330525;22;20071;-71
2021/11/11 00:36:03;;;;;;;1.70;1.60;;;;;;;0.06;84.38;100785.75;6330984;22;20519;-71
2021/11/11 00:38:29;;;;;;;2.53;2.42;;;;;;;0.04;83.82;100745.50;6329925;22;20019;-71
2021/11/11 00:40:55;;;;;;;2.13;1.38;;;;;;;0.08;84.32;100749.78;6303340;22;20609;-71
2021/11/11 00:43:21;;;;;;;1.55;1.55;;;;;;;0.11;83.67;100742.97;6329267;22;20101;-71
2021/11/11 00:45:47;;;;;;;7.53;3.78;;;;;;;0.11;83.83;100736.97;6330851;22;20026;-71
2021/11/11 00:48:13;;;;;;;1.67;1.58;;;;;;;0.15;83.12;100733.56;6331329;22;20023;-72
2021/11/11 00:50:39;;;;;;;2.47;2.35;;;;;;;0.21;82.50;100733.56;6329573;22;20026;-70
2021/11/11 00:53:06;;;;;;;1.15;1.15;;;;;;;0.20;82.52;100731.84;6328797;22;20018;-70
2021/11/11 00:55:34;;;;;;;0.85;0.85;;;;;;;0.20;82.58;100722.41;6329012;22;20015;-73
2021/11/11 00:58:05;;;;;;;1.35;1.35;;;;;;;0.25;81.60;100727.56;6328677;22;20033;-70
2021/11/11 01:00:32;;;;;;;1.92;1.83;;;;;;;0.26;81.48;100716.47;6330456;22;20089;-71
2021/11/11 01:02:58;;;;;;;0.60;0.60;;;;;;;0.29;81.02;100721.59;6303380;22;20018;-70
2021/11/11 01:05:24;;;;;;;1.33;1.33;;;;;;;0.32;80.69;100721.59;6330453;22;20041;-71
2021/11/11 01:07:51;;;;;;;4.47;2.67;;;;;;;0.36;80.58;100747.25;6329981;22;20022;-71
2021/11/11 01:10:18;;;;;;;0.93;0.93;;;;;;;0.40;79.75;100745.53;6302612;22;20488;-70
2021/11/11 01:12:45;;;;;;;1.52;1.50;;;;;;;0.40;79.98;100746.41;6328587;22;20044;-69
2021/11/11 01:15:13;;;;;;;2.67;2.40;;;;;;;0.45;78.78;100728.44;6330551;22;20652;-70
2021/11/11 01:17:39;;;;;;;1.45;1.45;;;;;;;0.46;78.15;100722.44;6328783;22;20026;-71
2021/11/11 01:20:08;;;;;;;1.30;1.27;;;;;;;0.50;78.28;100727.56;6328426;22;20019;-71
2021/11/11 01:22:35;;;;;;;4.70;1.67;;;;;;;0.50;77.86;100717.31;6302455;22;20224;-72
2021/11/11 01:25:03;;;;;;;1.33;1.25;;;;;;;0.53;77.76;100716.44;6330236;22;20014;-73
2021/11/11 01:27:30;;;;;;;0.70;0.70;;;;;;;0.54;77.87;100718.16;6302841;22;20377;-70
2021/11/11 01:29:56;;;;;;;0.73;0.73;;;;;;;0.57;77.29;100712.16;6328609;22;20022;-71
2021/11/11 01:32:25;;;;;;;0.73;0.73;;;;;;;0.60;76.67;100710.44;6328720;22;20027;-70
2021/11/11 01:34:52;;;;;;;2.17;2.05;;;;;;;0.61;76.07;100704.47;6328555;22;20025;-72
2021/11/11 01:37:19;;;;;;;0.85;0.85;;;;;;;0.62;76.21;100690.78;6328501;22;20019;-72
2021/11/11 01:39:51;;;;;;;1.45;1.40;;;;;;;0.63;76.62;100682.19;6330177;22;20023;-71
2021/11/11 01:42:17;;;;;;;1.73;1.67;;;;;;;0.63;75.73;100687.31;6277187;22;20478;-72
2021/11/11 01:44:50;;;;;;;0.60;0.60;;;;;;;0.66;74.94;100686.47;6330159;22;20011;-74
2021/11/11 01:47:18;;;;;;;1.42;1.17;;;;;;;0.69;75.37;100687.31;6329867;22;20018;-71
2021/11/11 01:49:44;;;;;;;0.75;0.75;;;;;;;0.70;75.12;100683.03;6330205;22;20019;-71
2021/11/11 01:52:13;;;;;;;1.15;1.15;;;;;;;0.73;74.91;100686.44;6332229;22;20018;-71
2021/11/11 01:54:40;;;;;;;1.27;1.27;;;;;;;0.76;74.29;100683.88;6330045;22;20090;-71
2021/11/11 01:57:07;;;;;;;1.40;1.40;;;;;;;0.72;74.62;100661.59;6329801;22;20026;-72
2021/11/11 01:59:33;;;;;;;0.63;0.63;;;;;;;0.76;74.53;100677.88;6328675;22;20018;-72
2021/11/11 02:02:02;;;;;;;2.67;0.93;;;;;;;0.79;73.96;100675.31;6328727;22;20014;-71
2021/11/11 02:04:36;;;;;;;1.27;1.27;;;;;;;0.84;73.03;100661.59;6278345;22;20060;-71
2021/11/11 02:07:03;;;;;;;0.63;0.63;;;;;;;0.84;73.03;100666.75;6329194;22;20465;-71
2021/11/11 02:09:34;;;;;;;1.15;1.15;;;;;;;0.87;72.95;100656.44;6329568;22;20011;-71
2021/11/11 02:12:11;;;;;;;1.02;1.02;;;;;;;0.92;72.90;100671.84;6329462;22;20441;-71
2021/11/11 02:14:39;;;;;;;0.68;0.68;;;;;;;0.90;73.33;100661.59;6328366;22;20037;-72
2021/11/11 02:17:07;;;;;;;1.13;1.13;;;;;;;0.93;72.30;100660.72;6330814;22;20026;-71
2021/11/11 02:20:19;;;;;;;1.02;1.02;;;;;;;0.95;72.22;100658.97;6309570;22;20104;-71
2021/11/11 02:23:04;;;;;;;1.17;1.17;;;;;;;1.00;71.42;100646.97;6332989;22;20033;-71
2021/11/11 02:25:49;;;;;;;1.58;1.48;;;;;;;1.03;71.72;100650.41;6332192;22;20021;-71
2021/11/11 02:28:18;;;;;;;1.17;1.17;;;;;;;1.04;71.52;100636.69;6331179;22;20014;-70
2021/11/11 02:30:47;;;;;;;0.70;0.70;;;;;;;1.06;71.14;100641.81;6331726;22;20014;-71
2021/11/11 02:33:17;;;;;;;0.70;0.70;;;;;;;1.02;70.27;100617.84;6306282;22;20015;-72
2021/11/11 02:35:43;;;;;;;0.93;0.93;;;;;;;1.08;70.92;100634.94;6330764;22;20101;-71
2021/11/11 02:38:10;;;;;;;1.33;1.33;;;;;;;1.09;70.87;100633.22;6305702;22;20105;-72
2021/11/11 02:40:40;;;;;;;0.52;0.52;;;;;;;1.08;70.84;100610.97;6280864;22;20025;-70
2021/11/11 02:43:07;;;;;;;0.98;0.70;;;;;;;1.14;70.58;100605.81;6331664;22;20093;-72
2021/11/11 02:45:36;;;;;;;1.83;1.73;;;;;;;1.14;70.50;100608.38;6305618;22;20019;-72
2021/11/11 02:48:06;;;;;;;3.50;2.15;;;;;;;1.17;70.10;100604.06;6306088;22;20034;-72
2021/11/11 02:50:39;;;;;;;0.52;0.52;;;;;;;1.18;69.98;100599.78;6331231;22;20018;-72
2021/11/11 02:53:06;;;;;;;1.00;1.00;;;;;;;1.25;68.89;100580.88;6305633;22;20177;-72
2021/11/11 02:55:32;;;;;;;1.05;1.05;;;;;;;1.24;69.17;100585.19;6331114;22;20512;-72
2021/11/11 02:57:59;;;;;;;0.98;0.98;;;;;;;1.28;68.95;100588.56;6331212;22;20042;-72
2021/11/11 03:00:33;;;;;;;0.90;0.90;;;;;;;1.30;69.10;100595.44;6305403;22;20617;-73
2021/11/11 03:03:00;;;;;;;0.57;0.57;;;;;;;1.32;68.69;100592.84;6280047;22;20015;-72
2021/11/11 03:05:32;;;;;;;1.63;1.52;;;;;;;1.33;68.99;100592.84;6331194;22;20015;-72
2021/11/11 03:08:02;;;;;;;0.70;0.70;;;;;;;1.33;68.75;100594.56;6333045;22;20076;-73
2021/11/11 03:10:30;;;;;;;0.90;0.90;;;;;;;1.35;68.65;100600.53;6279872;22;20019;-73
2021/11/11 03:12:57;;;;;;;0.60;0.60;;;;;;;1.33;68.73;100589.41;6330624;22;20025;-72
2021/11/11 03:15:25;;;;;;;0.68;0.68;;;;;;;1.39;68.24;100585.09;6280214;22;20018;-73
2021/11/11 03:17:51;;;;;;;0.70;0.70;;;;;;;1.45;67.48;100576.47;6279548;22;20450;-72
2021/11/11 03:20:18;;;;;;;0.70;0.70;;;;;;;1.50;67.16;100564.44;6305179;22;20018;-72
2021/11/11 03:22:44;;;;;;;1.05;1.05;;;;;;;1.51;67.10;100579.00;6332485;22;20021;-71
2021/11/11 03:25:14;;;;;;;0.65;0.65;;;;;;;1.51;67.00;100579.00;6331014;22;20018;-72
2021/11/11 03:27:41;;;;;;;0.80;0.80;;;;;;;1.51;67.17;100569.56;6331897;22;20469;-72
2021/11/11 03:30:11;;;;;;;0.80;0.80;;;;;;;1.54;66.54;100560.97;6331106;22;20533;-72
2021/11/11 03:32:38;;;;;;;0.45;0.45;;;;;;;1.51;66.98;100563.56;6279389;22;20477;-73
2021/11/11 03:35:06;;;;;;;0.75;0.75;;;;;;;1.53;66.43;100561.84;6332658;22;20343;-73
2021/11/11 03:37:33;;;;;;;1.35;1.25;;;;;;;1.52;66.95;100547.28;6330913;22;20029;-72
2021/11/11 03:40:00;;;;;;;0.95;0.90;;;;;;;1.57;65.72;100532.66;6330582;22;20088;-71
2021/11/11 03:42:26;;;;;;;0.85;0.85;;;;;;;1.55;66.05;100539.53;6331207;22;20477;-71
2021/11/11 03:44:52;;;;;;;0.57;0.57;;;;;;;1.52;66.51;100529.25;6330887;22;20019;-73
2021/11/11 03:47:21;;;;;;;0.80;0.80;;;;;;;1.56;66.00;100531.81;6330869;22;20078;-71
2021/11/11 03:49:50;;;;;;;1.27;1.27;;;;;;;1.54;66.13;100527.53;6331816;22;20102;-73
2021/11/11 03:52:17;;;;;;;1.85;1.75;;;;;;;1.52;65.95;100524.97;6330807;22;20088;-71
2021/11/11 03:54:43;;;;;;;0.68;0.68;;;;;;;1.52;66.29;100521.53;6304879;22;20022;-72
2021/11/11 03:57:12;;;;;;;1.00;1.00;;;;;;;1.50;66.50;100495.00;6330909;22;20018;-71
2021/11/11 03:59:39;;;;;;;0.70;0.70;;;;;;;1.52;66.05;100500.97;6329787;22;20070;-72
2021/11/11 04:02:05;;;;;;;4.50;1.85;;;;;;;1.49;66.28;100491.56;6330015;22;20023;-72
2021/11/11 04:04:33;;;;;;;0.50;0.50;;;;;;;1.53;65.84;100494.97;6332325;22;20015;-72
2021/11/11 04:06:59;;;;;;;1.73;1.63;;;;;;;1.53;66.10;100479.53;6330808;22;20042;-72
2021/11/11 04:09:25;;;;;;;1.88;1.63;;;;;;;1.54;65.56;100486.34;6330756;22;20022;-72
2021/11/11 04:11:51;;;;;;;0.88;0.88;;;;;;;1.57;65.15;100479.47;6330671;22;20069;-72
2021/11/11 04:14:18;;;;;;;0.70;0.70;;;;;;;1.51;66.16;100470.94;6279332;22;20018;-71
2021/11/11 04:16:45;;;;;;;0.60;0.60;;;;;;;1.51;65.89;100476.94;6330412;22;20519;-72
2021/11/11 04:19:13;;;;;;;1.20;1.20;;;;;;;1.47;65.80;100459.81;6330739;22;20018;-72
2021/11/11 04:21:40;;;;;;;2.97;2.03;;;;;;;1.52;65.69;100464.94;6332067;22;20014;-72
2021/11/11 04:24:07;;;;;;;0.63;0.63;;;;;;;1.57;65.27;100469.19;6330514;22;20454;-71
2021/11/11 04:26:41;;;;;;;0.73;0.73;;;;;;;1.64;65.33;100472.56;6278996;22;20022;-73
2021/11/11 04:29:27;;;;;;;1.40;1.40;;;;;;;1.59;65.26;100469.19;6330744;22;20077;-72
2021/11/11 04:31:58;;;;;;;0.90;0.90;;;;;;;1.63;64.83;100478.59;6330215;22;20528;-71
2021/11/11 04:34:29;;;;;;;0.55;0.55;;;;;;;1.63;65.35;100458.00;6330376;22;20022;-72
2021/11/11 05:05:56;;;;;;;1.90;1.58;;;;;;;1.89;64.08;100429.44;6330898;22;20019;-73
2021/11/11 05:08:23;;;;;;;1.30;1.20;;;;;;;1.86;64.39;100412.31;6305606;22;20353;-72
2021/11/11 05:10:52;;;;;;;0.80;0.80;;;;;;;1.88;64.94;100426.00;6304431;22;20368;-72
2021/11/11 05:13:19;;;;;;;0.70;0.70;;;;;;;1.89;65.04;100401.13;6330915;22;20080;-71
2021/11/11 05:15:45;;;;;;;1.77;1.67;;;;;;;1.94;64.12;100395.03;6330081;22;20069;-71
2021/11/11 05:18:12;;;;;;;1.80;1.00;;;;;;;2.04;63.67;100401.78;6330383;22;20018;-71
2021/11/11 05:20:39;;;;;;;5.15;1.40;;;;;;;2.02;63.70;100398.41;6330281;22;20049;-72
2021/11/11 05:23:05;;;;;;;1.48;1.45;;;;;;;2.02;64.00;100398.41;6330509;22;20497;-72
2021/11/11 05:25:31;;;;;;;1.05;1.05;;;;;;;2.02;63.95;100403.53;6331500;22;20357;-72
2021/11/11 05:27:57;;;;;;;2.50;1.05;;;;;;;2.04;63.87;100409.50;6330162;22;20015;-73
2021/11/11 05:30:24;;;;;;;1.05;1.05;;;;;;;2.06;63.71;100400.03;6330176;22;20018;-73
2021/11/11 05:32:51;;;;;;;0.65;0.65;;;;;;;2.11;63.33;100397.44;6304332;22;20153;-73
2021/11/11 05:35:21;;;;;;;0.98;0.98;;;;;;;2.10;63.91;100399.16;6330049;22;20015;-72
2021/11/11 05:37:48;;;;;;;0.40;0.40;;;;;;;2.16;63.56;100405.09;6331811;22;20053;-72
2021/11/11 05:40:16;;;;;;;1.05;1.05;;;;;;;2.19;63.59;100405.06;6304546;22;20058;-72
2021/11/11 05:42:42;;;;;;;1.38;1.38;;;;;;;2.26;63.00;100401.56;6304063;22;20076;-73
2021/11/11 05:45:09;;;;;;;1.52;1.42;;;;;;;2.31;62.85;100400.63;6304763;22;20015;-72
2021/11/11 05:47:36;;;;;;;1.45;1.45;;;;;;;2.32;63.29;100409.19;6331770;22;20093;-73
2021/11/11 05:50:04;;;;;;;0.40;0.40;;;;;;;2.31;62.71;100398.03;6305367;22;20037;-73
2021/11/11 05:52:32;;;;;;;0.88;0.88;;;;;;;2.38;62.50;100409.97;6307224;22;20019;-74
2021/11/11 05:54:58;;;;;;;1.92;1.83;;;;;;;2.38;62.85;100396.22;6257658;22;20042;-73
2021/11/11 05:57:25;;;;;;;1.05;1.05;;;;;;;2.44;62.38;100406.47;6328017;22;20014;-76
2021/11/11 05:59:51;;;;;;;0.80;0.80;;;;;;;2.44;62.89;100401.31;6330265;22;20101;-75
2021/11/11 06:02:17;;;;;;;1.17;1.17;;;;;;;2.52;62.67;100402.06;6304963;22;20400;-74
2021/11/11 06:04:45;;;;;;;0.50;0.50;;;;;;;2.52;62.40;100425.25;6304884;22;20088;-74
2021/11/11 06:07:13;;;;;;;0.80;0.80;;;;;;;2.58;62.03;100417.44;6331128;22;20441;-73
2021/11/11 06:09:39;;;;;;;1.42;1.40;;;;;;;2.54;62.50;100403.75;6331207;22;20053;-75
2021/11/11 06:12:06;;;;;;;0.60;0.60;;;;;;;2.55;62.30;100412.34;6305221;22;20045;-76
2021/11/11 06:14:32;;;;;;;0.90;0.90;;;;;;;2.53;62.76;100412.34;6329816;22;20015;-74
2021/11/11 06:17:00;;;;;;;2.47;2.28;;;;;;;2.57;62.41;100400.28;6330585;22;20017;-73
2021/11/11 06:19:27;;;;;;;1.38;1.38;;;;;;;2.60;62.26;100403.66;6330857;22;20025;-74
2021/11/11 06:21:54;;;;;;;0.63;0.63;;;;;;;2.51;62.35;100387.47;6330728;22;20019;-73
2021/11/11 06:24:21;;;;;;;1.02;1.02;;;;;;;2.59;62.06;100404.50;6305230;22;20018;-74
2021/11/11 06:26:47;;;;;;;2.08;2.03;;;;;;;2.53;62.56;100399.44;6304581;22;20071;-74
2021/11/11 06:29:13;;;;;;;1.17;1.10;;;;;;;2.65;62.03;100393.25;6330762;22;20026;-74
2021/11/11 06:31:40;;;;;;;0.73;0.73;;;;;;;2.73;61.93;100388.00;6305087;22;20025;-73
2021/11/11 06:34:12;;;;;;;0.70;0.70;;;;;;;2.78;62.87;100386.22;6330742;22;20065;-74
2021/11/11 06:36:38;;;;;;;1.55;1.45;;;;;;;2.82;62.69;100381.00;6332282;22;20026;-74
2021/11/11 06:39:04;;;;;;;0.95;0.95;;;;;;;2.79;62.64;100390.50;6330342;22;20029;-72
2021/11/11 06:41:30;;;;;;;1.13;1.13;;;;;;;2.82;62.97;100388.72;6332151;22;20599;-73
2021/11/11 06:43:56;;;;;;;1.00;1.00;;;;;;;2.83;62.38;100398.16;6332163;22;20030;-73
2021/11/11 06:46:23;;;;;;;1.15;0.75;;;;;;;2.85;62.26;100385.25;6330059;22;20581;-73
2021/11/11 06:48:49;;;;;;;1.13;1.13;;;;;;;2.86;62.66;100400.69;6331430;22;20079;-73
2021/11/11 06:51:16;;;;;;;0.57;0.57;;;;;;;2.78;63.35;100394.78;6332008;22;20504;-73
2021/11/11 06:53:41;;;;;;;2.72;2.55;;;;;;;2.84;63.16;100386.13;6329957;22;20210;-74
2021/11/11 06:56:07;;;;;;;1.33;1.33;;;;;;;2.83;63.91;100387.00;6331890;22;20626;-73
2021/11/11 06:58:34;;;;;;;0.50;0.50;;;;;;;2.78;64.48;100402.53;6330183;22;20069;-73
2021/11/11 07:01:02;;;;;;;1.58;1.48;;;;;;;2.74;65.62;100406.03;6331594;22;20209;-72
2021/11/11 07:03:29;;;;;;;1.08;1.08;;;;;;;2.65;66.85;100401.00;6303664;22;20048;-72
2021/11/11 07:05:55;;;;;;;2.25;2.08;;;;;;;2.58;67.66;100383.94;6304998;22;20029;-72
2021/11/11 07:08:21;;;;;;;2.03;1.83;;;;;;;2.52;68.65;100390.00;6330997;22;20045;-72
2021/11/11 07:10:49;;;;;;;1.48;1.38;;;;;;;2.46;69.73;100394.41;6328224;22;20477;-72
2021/11/11 07:13:15;;;;;;;1.00;1.00;;;;;;;2.36;71.50;100385.94;6329785;22;20019;-71
2021/11/11 07:15:42;;;;;;;3.72;1.90;;;;;;;2.28;71.91;100394.66;6328677;22;20537;-71
2021/11/11 07:18:10;;;;;;;1.33;1.33;;;;;;;2.21;73.16;100386.13;6331707;22;20080;-72
2021/11/11 07:20:37;;;;;;;1.10;1.10;;;;;;;2.16;74.21;100392.22;6333872;22;20014;-73
2021/11/11 07:23:04;;;;;;;1.45;1.42;;;;;;;2.07;76.52;100396.59;6332792;22;20394;-72
2021/11/11 07:25:31;;;;;;;1.02;1.02;;;;;;;2.06;76.04;100388.91;6330605;22;20027;-72
2021/11/11 07:27:57;;;;;;;0.85;0.85;;;;;;;1.99;76.73;100398.44;6330144;22;20023;-73
2021/11/11 07:30:23;;;;;;;0.50;0.50;;;;;;;1.91;78.48;100389.94;6331959;22;20014;-73
2021/11/11 07:32:49;;;;;;;1.60;1.35;;;;;;;1.87;80.18;100384.81;6329724;22;20015;-72
2021/11/11 07:35:16;;;;;;;0.60;0.60;;;;;;;1.85;79.25;100384.84;6329996;22;20741;-72
2021/11/11 07:37:47;;;;;;;1.52;1.42;;;;;;;1.84;80.01;100383.13;6330642;22;20015;-72
2021/11/11 07:40:16;;;;;;;1.17;1.17;;;;;;;1.76;80.58;100364.38;6330552;22;20048;-72
2021/11/11 07:42:43;;;;;;;1.20;1.20;;;;;;;1.76;80.73;100364.38;6330542;22;20109;-72
2021/11/11 07:45:11;;;;;;;0.70;0.70;;;;;;;1.78;79.60;100367.78;6303462;22;20018;-72
2021/11/11 07:47:37;;;;;;;1.23;1.23;;;;;;;1.73;81.00;100364.41;6329920;22;20046;-72
2021/11/11 07:50:04;;;;;;;1.67;1.67;;;;;;;1.78;79.93;100369.50;6328961;22;20363;-73
2021/11/11 07:52:30;;;;;;;1.98;1.88;;;;;;;1.83;79.29;100362.59;6329960;22;20284;-72
2021/11/11 07:54:58;;;;;;;1.08;1.08;;;;;;;1.78;79.77;100362.63;6330906;22;20331;-73
2021/11/11 07:57:24;;;;;;;3.47;1.85;;;;;;;1.83;78.38;100370.31;6330977;22;20026;-73
2021/11/11 07:59:53;;;;;;;4.75;2.05;;;;;;;1.88;78.48;100368.50;6330065;22;20019;-72
2021/11/11 08:02:19;;;;;;;1.27;1.27;;;;;;;1.89;79.02;100365.94;6328731;22;20042;-73
2021/11/11 08:04:45;;;;;;;1.20;1.20;;;;;;;1.89;79.30;100360.78;6328842;22;20018;-73
2021/11/11 08:07:14;;;;;;;2.13;2.03;;;;;;;1.86;79.85;100342.81;6303327;22;20458;-73
2021/11/11 08:09:40;;;;;;;9.85;3.17;;;;;;;1.96;78.06;100353.84;6331291;22;20018;-74
2021/11/11 08:12:07;;;;;;;1.45;1.45;;;;;;;1.99;79.50;100352.09;6303648;22;20023;-73
2021/11/11 08:14:33;;;;;;;1.55;1.55;;;;;;;1.98;79.42;100364.97;6331755;22;20019;-74
2021/11/11 08:16:59;;;;;;;1.08;1.08;;;;;;;2.00;80.26;100358.94;6303144;22;20042;-74
2021/11/11 08:19:25;;;;;;;1.33;1.33;;;;;;;2.03;80.25;100358.88;6330383;22;20030;-70
2021/11/11 08:21:51;;;;;;;2.65;2.47;;;;;;;2.08;79.26;100354.53;6329274;22;20017;-71
2021/11/11 08:24:17;;;;;;;3.15;2.95;;;;;;;2.07;80.25;100350.25;6303370;22;20023;-74
2021/11/11 08:26:43;;;;;;;2.10;1.83;;;;;;;2.08;80.25;100341.69;6330710;22;20022;-75
2021/11/11 08:29:09;;;;;;;1.58;1.50;;;;;;;2.14;80.72;100337.31;6303753;22;20042;-71
2021/11/11 08:31:35;;;;;;;4.40;2.53;;;;;;;2.13;80.60;100327.91;6331420;22;20029;-73
2021/11/11 08:34:02;;;;;;;1.13;1.13;;;;;;;2.24;80.53;100334.59;6329521;22;20068;-74
2021/11/11 08:36:28;;;;;;;2.28;1.08;;;;;;;2.33;80.46;100337.03;6331225;22;20042;-72
2021/11/11 08:39:00;;;;;;;1.80;1.70;;;;;;;2.35;79.67;100339.59;6330989;22;20018;-72
2021/11/11 08:41:27;;;;;;;1.42;1.42;;;;;;;2.31;80.35;100322.47;6303816;22;20021;-73
2021/11/11 08:43:54;;;;;;;2.65;2.53;;;;;;;2.35;79.20;100326.72;6329787;22;20014;-74
2021/11/11 08:46:21;;;;;;;1.83;1.73;;;;;;;2.34;80.70;100323.28;6330362;22;20014;-73
2021/11/11 08:48:47;;;;;;;11.20;1.50;;;;;;;2.34;80.43;100322.44;6304577;22;20076;-75
2021/11/11 08:51:13;;;;;;;16.58;2.25;;;;;;;2.34;80.42;100328.44;6331209;22;20190;-74
2021/11/11 08:53:39;;;;;;;1.10;1.10;;;;;;;2.38;79.64;100308.66;6303578;22;20022;-76
2021/11/11 08:56:06;;;;;;;0.85;0.85;;;;;;;2.39;79.48;100300.06;6328124;22;20019;-75
2021/11/11 08:58:34;;;;;;;3.95;3.65;;;;;;;2.41;79.09;100309.47;6328220;22;20092;-76
2021/11/11 09:01:01;;;;;;;1.60;1.50;;;;;;;2.37;79.61;100306.94;6327413;22;20418;-77
2021/11/11 09:03:28;;;;;;;1.58;1.58;;;;;;;2.42;79.84;100318.88;6328953;22;20019;-77
2021/11/11 09:05:54;;;;;;;3.92;2.22;;;;;;;2.43;79.87;100317.16;6328505;22;20014;-75
2021/11/11 09:08:21;;;;;;;2.22;2.05;;;;;;;2.40;79.90;100319.78;6302323;22;20022;-75
2021/11/11 09:10:47;;;;;;;1.50;1.40;;;;;;;2.48;79.33;100311.06;6328128;22;20022;-75
2021/11/11 09:13:13;;;;;;;1.25;1.25;;;;;;;2.45;80.55;100311.13;6328594;22;20015;-76
2021/11/11 09:15:39;;;;;;;2.03;1.92;;;;;;;2.44;79.39;100313.72;6330282;22;20100;-75
2021/11/11 09:18:08;;;;;;;1.38;1.35;;;;;;;2.44;79.63;100317.13;6329299;22;20023;-74
2021/11/11 09:20:40;;;;;;;5.40;1.13;;;;;;;2.49;79.69;100317.06;6328540;22;20021;-74
2021/11/11 09:23:06;;;;;;;0.50;0.50;;;;;;;2.45;79.89;100318.00;6330113;22;20023;-74
2021/11/11 09:25:33;;;;;;;1.20;1.20;;;;;;;2.44;80.06;100316.28;6329820;22;20050;-75
2021/11/11 09:28:00;;;;;;;0.93;0.93;;;;;;;2.46;80.53;100320.53;6331560;22;20018;-73
2021/11/11 09:30:31;;;;;;;1.85;1.75;;;;;;;2.49;80.19;100317.91;6332293;22;20040;-75
2021/11/11 09:32:58;;;;;;;1.00;1.00;;;;;;;2.54;80.50;100310.13;6330258;22;20412;-74
2021/11/11 09:35:25;;;;;;;1.52;1.25;;;;;;;2.52;79.95;100307.56;6325010;22;20094;-73
2021/11/11 09:37:54;;;;;;;2.92;1.90;;;;;;;2.57;78.47;100299.78;6330037;22;20046;-75
2021/11/11 09:40:22;;;;;;;2.75;2.55;;;;;;;2.58;79.61;100314.38;6333483;22;20046;-74
2021/11/11 09:42:48;;;;;;;2.35;2.25;;;;;;;2.56;80.31;100308.38;6332076;22;20077;-74
2021/11/11 09:45:16;;;;;;;1.50;1.48;;;;;;;2.56;80.13;100292.91;6333509;22;20370;-76
2021/11/11 09:47:47;;;;;;;1.73;1.63;;;;;;;2.62;78.67;100303.97;6336250;22;20098;-76
2021/11/11 09:50:13;;;;;;;1.35;1.35;;;;;;;2.64;78.27;100301.38;6334300;22;20530;-75
2021/11/11 09:52:40;;;;;;;1.35;1.35;;;;;;;2.65;78.25;100290.16;6330704;22;20025;-75
2021/11/11 10:00:37;;;;;;;4.10;2.50;;;;;;;2.68;78.41;100294.44;6336045;22;20093;-74
2021/11/11 10:03:04;;;;;;;1.98;1.67;;;;;;;2.63;78.80;100290.22;6337597;22;20125;-76
2021/11/11 10:05:30;;;;;;;2.03;1.98;;;;;;;2.55;78.82;100275.75;6338492;22;20019;-74
2021/11/11 10:07:56;;;;;;;3.58;1.40;;;;;;;2.59;79.10;100287.69;6283586;22;20074;-76
2021/11/11 10:10:31;;;;;;;0.85;0.85;;;;;;;2.66;79.20;100293.59;6327308;22;20045;-76
2021/11/11 10:13:28;;;;;;;0.88;0.88;;;;;;;2.71;77.76;100286.66;6329427;22;20018;-78
2021/11/11 10:15:58;;;;;;;1.20;1.20;;;;;;;2.70;78.54;100278.09;6273249;22;20029;-75
2021/11/11 10:18:45;;;;;;;1.25;1.25;;;;;;;2.68;80.12;100279.84;6330488;22;20023;-76
2021/11/11 10:22:10;;;;;;;3.58;2.08;;;;;;;2.76;78.28;100290.88;6332172;22;20023;-75
2021/11/11 10:24:54;;;;;;;2.85;2.75;;;;;;;2.69;79.11;100284.09;6157045;23;20025;-77
2021/11/11 10:27:47;;;;;;;1.65;1.63;;;;;;;2.72;79.40;100278.03;6329437;22;20010;-77
2021/11/11 10:30:14;;;;;;;0.55;0.55;;;;;;;2.70;79.51;100288.38;6308044;22;20073;-76
2021/11/11 10:32:47;;;;;;;2.83;2.50;;;;;;;2.75;78.71;100284.00;6331946;22;20019;-78
2021/11/11 10:35:18;;;;;;;2.88;2.55;;;;;;;2.75;78.80;100273.69;6304227;22;20019;-75
2021/11/11 10:38:05;;;;;;;1.52;1.45;;;;;;;2.70;79.15;100292.69;6329462;22;20656;-76
2021/11/11 10:40:43;;;;;;;1.83;1.73;;;;;;;2.65;80.22;100285.03;6331085;22;20018;-75
2021/11/11 10:43:11;;;;;;;1.05;1.05;;;;;;;2.63;79.55;100276.47;6331506;22;20018;-76
2021/11/11 10:45:40;;;;;;;3.42;3.15;;;;;;;2.66;79.75;100279.00;6331656;22;20011;-75
2021/11/11 10:48:08;;;;;;;4.10;0.95;;;;;;;2.64;79.86;100288.50;6329986;22;20088;-75
2021/11/11 10:50:37;;;;;;;1.02;1.02;;;;;;;2.63;80.20;100281.63;6330450;22;20029;-76
2021/11/11 10:53:05;;;;;;;1.73;1.70;;;;;;;2.62;80.94;100283.34;6328501;22;20015;-76
2021/11/11 10:55:32;;;;;;;1.13;1.13;;;;;;;2.64;80.55;100280.75;6278287;22;20025;-75
2021/11/11 10:58:07;;;;;;;2.60;2.40;;;;;;;2.65;81.21;100264.41;6277369;22;20068;-76
2021/11/11 11:00:35;;;;;;;1.20;1.20;;;;;;;2.71;80.47;100269.47;6302730;22;20022;-74
2021/11/11 11:03:08;;;;;;;1.17;1.17;;;;;;;2.69;81.19;100267.78;6331571;22;20019;-72
2021/11/11 11:05:37;;;;;;;1.63;1.58;;;;;;;2.73;79.85;100288.34;6332035;22;20015;-74
2021/11/11 11:08:09;;;;;;;1.30;1.30;;;;;;;2.70;80.51;100285.81;6330895;22;20099;-73
2021/11/11 11:10:37;;;;;;;1.40;1.40;;;;;;;2.73;80.32;100285.75;6330384;22;20022;-72
2021/11/11 11:13:16;;;;;;;1.05;1.05;;;;;;;2.72;80.43;100266.00;6329141;22;20462;-73
2021/11/11 11:15:50;;;;;;;1.85;1.75;;;;;;;2.74;80.84;100268.56;6329765;22;20026;-75
2021/11/11 11:18:19;;;;;;;2.88;2.78;;;;;;;2.77;80.56;100276.25;6304965;22;20018;-72
2021/11/11 11:20:45;;;;;;;1.42;1.42;;;;;;;2.75;80.99;100280.59;6331795;22;20019;-74
2021/11/11 11:23:23;;;;;;;1.00;1.00;;;;;;;2.73;81.17;100288.34;6330380;22;20550;-73
2021/11/11 11:25:54;;;;;;;1.55;1.50;;;;;;;2.70;81.23;100279.81;6306598;22;20018;-75
2021/11/11 11:29:04;;;;;;;1.40;1.35;;;;;;;2.70;81.19;100284.97;6304057;22;20022;-73
2021/11/11 11:31:43;;;;;;;0.60;0.60;;;;;;;2.66;82.34;100266.13;6298894;22;20158;-73
2021/11/11 11:34:14;;;;;;;3.28;1.40;;;;;;;2.73;81.34;100265.13;6329745;22;20466;-74
2021/11/11 11:36:46;;;;;;;8.35;1.60;;;;;;;2.72;81.17;100276.31;6303445;22;20106;-74
2021/11/11 11:39:29;;;;;;;0.75;0.75;;;;;;;2.67;81.15;100272.97;6331734;22;20024;-73
2021/11/11 11:41:58;;;;;;;0.70;0.70;;;;;;;2.69;81.84;100268.63;6328033;22;20110;-74
2021/11/11 11:44:29;;;;;;;0.60;0.60;;;;;;;2.69;81.27;100273.78;6331836;22;20022;-74
2021/11/11 11:46:58;;;;;;;1.60;1.60;;;;;;;2.65;82.51;100264.41;6328672;22;20019;-73
2021/11/11 11:49:24;;;;;;;1.38;1.38;;;;;;;2.68;81.61;100272.13;6329100;22;20023;-73
2021/11/11 11:51:50;;;;;;;1.00;0.90;;;;;;;2.67;81.82;100283.28;6331152;22;20045;-74
2021/11/11 11:54:24;;;;;;;0.50;0.50;;;;;;;2.69;81.84;100298.72;6304069;22;20023;-73
2021/11/11 11:56:55;;;;;;;2.45;2.30;;;;;;;2.59;83.06;100290.28;6331289;22;20021;-74
2021/11/11 11:59:25;;;;;;;1.85;1.75;;;;;;;2.55;82.42;100283.50;6330743;22;20018;-76
2021/11/11 12:02:00;;;;;;;2.10;2.05;;;;;;;2.61;81.90;100284.25;6329274;22;20022;-75
2021/11/11 12:04:43;;;;;;;1.38;1.35;;;;;;;2.63;82.34;100289.34;6330001;22;20060;-75
2021/11/11 12:10:16;;;;;;;1.25;1.25;;;;;;;2.56;82.06;100275.72;6297126;22;20022;-76
2021/11/11 12:39:58;;;;;;;1.45;1.45;;;;;;;2.56;84.26;100277.44;6326331;22;20049;-77
2021/11/11 12:42:34;;;;;;;1.00;1.00;;;;;;;2.55;84.46;100268.84;6326981;22;20019;-76
2021/11/11 12:45:09;;;;;;;2.85;2.67;;;;;;;2.57;83.52;100268.84;6325331;22;20019;-73
2021/11/11 12:47:38;;;;;;;1.13;1.13;;;;;;;2.53;84.22;100280.94;6327331;22;20015;-72